createdAt,value
2023-11-04T00:01:28.587Z,25.60
2023-11-04T00:03:58.617Z,25.60
2023-11-04T00:06:28.768Z,25.70
2023-11-04T00:08:58.583Z,25.70
2023-11-04T00:11:29.442Z,25.80
2023-11-04T00:13:59.492Z,25.80
2023-11-04T00:16:29.615Z,25.90
2023-11-04T00:18:59.411Z,26.00
2023-11-04T00:21:29.456Z,26.00
2023-11-04T00:24:00.348Z,26.10
2023-11-04T00:26:30.323Z,26.20
2023-11-04T00:29:00.915Z,26.30
2023-11-04T00:31:32.207Z,26.50
2023-11-04T00:34:02.450Z,26.50
2023-11-04T00:36:33.257Z,26.60
2023-11-04T00:39:03.511Z,26.70
2023-11-04T00:41:34.957Z,26.70
2023-11-04T00:44:05.613Z,26.80
2023-11-04T00:46:35.317Z,26.90
2023-11-04T00:49:05.919Z,26.90
2023-11-04T00:51:37.109Z,27.00
2023-11-04T00:54:07.383Z,27.10
2023-11-04T00:56:37.063Z,27.30
2023-11-04T00:59:07.244Z,27.40
2023-11-04T01:01:37.011Z,27.50
2023-11-04T01:04:08.417Z,27.50
2023-11-04T01:06:38.742Z,27.50
2023-11-04T01:09:08.551Z,27.60
2023-11-04T01:11:40.198Z,27.60
2023-11-04T01:14:10.393Z,27.80
2023-11-04T01:16:40.172Z,27.80
2023-11-04T01:19:10.198Z,27.90
2023-11-04T01:21:39.884Z,28.00
2023-11-04T01:24:10.211Z,28.00
2023-11-04T01:26:40.140Z,28.10
2023-11-04T01:29:13.033Z,28.10
2023-11-04T01:31:42.944Z,28.20
2023-11-04T01:34:13.495Z,28.20
2023-11-04T01:36:45.266Z,28.40
2023-11-04T01:39:17.716Z,28.50
2023-11-04T01:41:47.633Z,28.70
2023-11-04T01:44:17.268Z,28.60
2023-11-04T01:46:47.941Z,28.60
2023-11-04T01:49:18.147Z,28.70
2023-11-04T01:51:48.704Z,28.80
2023-11-04T01:54:18.688Z,29.00
2023-11-04T01:56:48.721Z,29.00
2023-11-04T01:59:19.144Z,28.90
2023-11-04T02:01:49.812Z,29.10
2023-11-04T02:04:20.750Z,29.00
2023-11-04T02:06:51.142Z,29.10
2023-11-04T02:09:22.154Z,29.30
2023-11-04T02:11:52.627Z,29.30
2023-11-04T02:14:22.599Z,29.40
2023-11-04T02:16:52.737Z,29.40
2023-11-04T02:19:22.514Z,29.50
2023-11-04T02:21:52.501Z,29.80
2023-11-04T02:24:22.246Z,29.70
2023-11-04T02:26:53.232Z,29.80
2023-11-04T02:29:23.391Z,29.80
2023-11-04T02:31:53.091Z,29.80
2023-11-04T02:34:23.085Z,29.90
2023-11-04T02:36:52.756Z,29.80
2023-11-04T02:39:23.026Z,30.00
2023-11-04T02:41:52.787Z,30.10
2023-11-04T02:44:23.536Z,30.20
2023-11-04T02:46:53.237Z,30.20
2023-11-04T02:49:23.388Z,30.20
2023-11-04T02:52:03.794Z,30.40
2023-11-04T02:54:38.948Z,30.50
2023-11-04T02:57:09.002Z,30.60
2023-11-04T02:59:38.866Z,30.80
2023-11-04T03:02:08.625Z,30.80
2023-11-04T03:04:41.576Z,30.70
2023-11-04T03:07:12.433Z,30.80
2023-11-04T03:09:42.236Z,31.00
2023-11-04T03:12:12.750Z,30.90
2023-11-04T03:14:46.807Z,31.00
2023-11-04T03:17:17.060Z,31.10
2023-11-04T03:19:47.912Z,31.30
2023-11-04T03:22:20.284Z,31.20
2023-11-04T03:24:50.821Z,31.40
2023-11-04T03:27:21.413Z,31.50
2023-11-04T03:29:51.986Z,31.40
2023-11-04T03:32:23.030Z,31.60
2023-11-04T03:34:52.951Z,31.40
2023-11-04T03:37:22.976Z,31.30
2023-11-04T03:39:55.378Z,31.50
2023-11-04T03:42:25.255Z,31.70
2023-11-04T03:44:54.992Z,31.70
2023-11-04T03:47:25.169Z,31.60
2023-11-04T03:49:54.945Z,31.60
2023-11-04T03:52:24.781Z,32.00
2023-11-04T03:54:54.507Z,32.20
2023-11-04T03:57:24.508Z,32.30
2023-11-04T03:59:54.390Z,32.40
2023-11-04T04:02:24.366Z,32.50
2023-11-04T04:04:54.507Z,32.40
2023-11-04T04:07:25.458Z,32.00
2023-11-04T04:09:56.154Z,31.80
2023-11-04T04:12:26.281Z,31.80
2023-11-04T04:14:56.330Z,32.10
2023-11-04T04:17:26.444Z,32.40
2023-11-04T04:19:56.280Z,32.20
2023-11-04T04:22:26.729Z,32.30
2023-11-04T04:24:56.645Z,32.40
2023-11-04T04:27:26.445Z,32.40
2023-11-04T04:29:56.376Z,32.70
2023-11-04T04:32:26.236Z,32.80
2023-11-04T04:34:56.270Z,32.90
2023-11-04T04:37:26.216Z,32.70
2023-11-04T04:39:56.175Z,32.80
2023-11-04T04:42:26.005Z,33.10
2023-11-04T04:44:56.015Z,33.20
2023-11-04T04:47:25.704Z,33.40
2023-11-04T04:49:55.754Z,33.70
2023-11-04T04:52:25.468Z,33.90
2023-11-04T04:54:55.576Z,33.90
2023-11-04T04:57:25.337Z,33.80
2023-11-04T04:59:55.385Z,33.80
2023-11-04T05:02:25.209Z,34.00
2023-11-04T05:04:55.617Z,34.30
2023-11-04T05:07:26.080Z,33.90
2023-11-04T05:09:55.925Z,33.90
2023-11-04T05:12:26.049Z,34.20
2023-11-04T05:14:56.233Z,34.20
2023-11-04T05:17:26.416Z,33.70
2023-11-04T05:19:58.511Z,33.50
2023-11-04T05:22:28.674Z,33.00
2023-11-04T05:24:58.518Z,33.00
2023-11-04T05:27:28.511Z,32.90
2023-11-04T05:29:58.185Z,33.00
2023-11-04T05:32:28.141Z,33.10
2023-11-04T05:34:57.940Z,33.10
2023-11-04T05:37:27.863Z,33.00
2023-11-04T05:39:57.888Z,32.80
2023-11-04T05:42:27.848Z,32.90
2023-11-04T05:44:59.987Z,32.80
2023-11-04T05:47:30.153Z,32.90
2023-11-04T05:50:00.030Z,32.80
2023-11-04T05:52:30.287Z,33.00
2023-11-04T05:55:00.306Z,33.30
2023-11-04T05:57:32.263Z,33.70
2023-11-04T06:00:07.034Z,34.00
2023-11-04T06:02:37.216Z,34.50
2023-11-04T06:05:08.481Z,34.50
2023-11-04T06:07:39.482Z,33.90
2023-11-04T06:10:10.972Z,34.00
2023-11-04T06:12:42.000Z,33.60
2023-11-04T06:15:13.454Z,33.20
2023-11-04T06:17:44.068Z,33.40
2023-11-04T06:20:14.050Z,33.40
2023-11-04T06:22:44.182Z,33.30
2023-11-04T06:25:14.401Z,33.40
2023-11-04T06:27:44.328Z,33.40
2023-11-04T06:30:15.806Z,33.40
2023-11-04T06:32:45.766Z,33.30
2023-11-04T06:35:15.551Z,33.20
2023-11-04T06:37:45.667Z,33.30
2023-11-04T06:40:15.739Z,33.00
2023-11-04T06:42:45.625Z,32.80
2023-11-04T06:45:15.581Z,32.70
2023-11-04T06:47:45.594Z,32.80
2023-11-04T06:50:15.519Z,32.60
2023-11-04T06:52:46.037Z,32.50
2023-11-04T06:55:15.781Z,32.90
2023-11-04T06:57:45.761Z,33.60
2023-11-04T07:00:17.063Z,34.20
2023-11-04T07:02:47.217Z,34.50
2023-11-04T07:05:17.470Z,34.60
2023-11-04T07:07:47.463Z,34.70
2023-11-04T07:10:17.523Z,34.80
2023-11-04T07:12:47.558Z,34.90
2023-11-04T07:15:17.654Z,34.70
2023-11-04T07:17:48.454Z,34.80
2023-11-04T07:20:18.574Z,34.90
2023-11-04T07:22:49.303Z,35.10
2023-11-04T07:25:19.382Z,34.90
2023-11-04T07:27:50.295Z,34.80
2023-11-04T07:30:21.163Z,34.70
2023-11-04T07:32:51.624Z,34.60
2023-11-04T07:35:22.111Z,34.80
2023-11-04T07:37:53.213Z,34.70
2023-11-04T07:40:24.876Z,34.30
2023-11-04T07:42:55.430Z,34.20
2023-11-04T07:45:27.077Z,34.10
2023-11-04T07:47:59.779Z,34.00
2023-11-04T07:50:29.847Z,33.90
2023-11-04T07:52:59.881Z,33.80
2023-11-04T07:55:30.319Z,33.80
2023-11-04T07:58:00.397Z,33.80
2023-11-04T08:00:30.438Z,33.50
2023-11-04T08:03:02.990Z,33.30
2023-11-04T08:05:34.386Z,33.30
2023-11-04T08:08:04.793Z,33.60
2023-11-04T08:10:36.045Z,33.80
2023-11-04T08:13:06.418Z,33.90
2023-11-04T08:15:36.779Z,33.90
2023-11-04T08:18:06.796Z,33.70
2023-11-04T08:20:37.523Z,33.40
2023-11-04T08:23:08.941Z,33.00
2023-11-04T08:25:39.323Z,33.10
2023-11-04T08:28:09.552Z,33.00
2023-11-04T08:30:41.375Z,32.80
2023-11-04T08:33:11.938Z,32.90
2023-11-04T08:35:42.047Z,32.90
2023-11-04T08:38:12.529Z,33.00
2023-11-04T08:40:42.234Z,33.10
2023-11-04T08:43:13.703Z,33.50
2023-11-04T08:45:44.008Z,33.60
2023-11-04T08:48:13.806Z,33.80
2023-11-04T08:50:43.704Z,33.90
2023-11-04T08:53:13.353Z,33.90
2023-11-04T08:55:43.597Z,33.90
2023-11-04T08:58:13.668Z,33.90
2023-11-04T09:00:44.023Z,34.00
2023-11-04T09:03:14.690Z,34.10
2023-11-04T09:05:45.003Z,33.80
2023-11-04T09:08:15.143Z,34.00
2023-11-04T09:10:45.517Z,33.90
2023-11-04T09:13:15.267Z,34.00
2023-11-04T09:15:45.598Z,34.00
2023-11-04T09:18:19.919Z,33.80
2023-11-04T09:20:50.677Z,33.60
2023-11-04T09:23:21.655Z,33.80
2023-11-04T09:25:52.232Z,33.90
2023-11-04T09:28:22.312Z,33.80
2023-11-04T09:30:54.313Z,33.70
2023-11-04T09:33:26.035Z,33.60
2023-11-04T09:35:58.166Z,33.70
2023-11-04T09:38:29.442Z,33.50
2023-11-04T09:40:59.783Z,33.50
2023-11-04T09:43:30.414Z,33.10
2023-11-04T09:46:04.165Z,33.30
2023-11-04T09:48:35.254Z,33.50
2023-11-04T09:51:05.749Z,33.50
2023-11-04T09:53:41.542Z,33.50
2023-11-04T09:56:11.768Z,33.50
2023-11-04T09:58:42.311Z,33.40
2023-11-04T10:01:12.372Z,33.40
2023-11-04T10:03:42.167Z,33.20
2023-11-04T10:06:12.345Z,33.30
2023-11-04T10:08:42.745Z,33.30
2023-11-04T10:11:12.915Z,33.20
2023-11-04T10:13:43.112Z,33.20
2023-11-04T10:16:14.913Z,33.30
2023-11-04T10:18:45.606Z,33.20
2023-11-04T10:21:15.527Z,33.10
2023-11-04T10:23:45.658Z,33.00
2023-11-04T10:26:17.107Z,32.80
2023-11-04T10:28:47.153Z,32.70
2023-11-04T10:31:20.263Z,32.50
2023-11-04T10:33:51.196Z,32.40
2023-11-04T10:36:21.335Z,32.30
2023-11-04T10:39:00.343Z,32.30
2023-11-04T10:41:59.469Z,32.10
2023-11-04T10:44:34.696Z,32.00
2023-11-04T10:47:43.735Z,32.00
2023-11-04T10:50:31.556Z,32.00
2023-11-04T10:53:28.198Z,32.10
2023-11-04T10:56:14.234Z,32.30
2023-11-04T10:58:57.667Z,32.40
2023-11-04T11:01:28.268Z,32.40
2023-11-04T11:03:58.621Z,32.20
2023-11-04T11:06:30.538Z,32.00
2023-11-04T11:09:03.002Z,31.80
2023-11-04T11:11:55.557Z,31.80
2023-11-04T11:14:26.124Z,31.90
2023-11-04T11:17:07.326Z,31.90
2023-11-04T11:19:50.942Z,31.90
2023-11-04T11:22:28.268Z,31.80
2023-11-04T11:25:00.399Z,31.50
2023-11-04T11:27:30.370Z,31.70
2023-11-04T11:30:06.927Z,31.40
2023-11-04T11:32:40.311Z,31.40
2023-11-04T11:35:10.552Z,31.40
2023-11-04T11:37:42.942Z,31.30
2023-11-04T11:40:15.710Z,31.20
2023-11-04T11:42:45.962Z,31.20
2023-11-04T11:45:15.719Z,31.40
2023-11-04T11:47:45.837Z,31.30
2023-11-04T11:50:15.575Z,31.30
2023-11-04T11:52:45.461Z,31.30
2023-11-04T11:55:15.145Z,31.30
2023-11-04T11:57:45.331Z,31.20
2023-11-04T12:00:15.791Z,31.20
2023-11-04T12:02:45.732Z,30.90
2023-11-04T12:05:15.383Z,30.90
2023-11-04T12:07:45.768Z,31.00
2023-11-04T12:10:15.554Z,30.50
2023-11-04T12:12:47.219Z,30.20
2023-11-04T12:15:17.502Z,30.10
2023-11-04T12:18:04.299Z,30.40
2023-11-04T12:20:36.074Z,30.20
2023-11-04T12:23:09.061Z,30.10
2023-11-04T12:25:40.534Z,30.20
2023-11-04T12:28:11.872Z,30.00
2023-11-04T12:30:42.038Z,30.00
2023-11-04T12:33:11.859Z,30.00
2023-11-04T12:35:43.280Z,30.30
2023-11-04T12:38:15.107Z,30.40
2023-11-04T12:40:45.356Z,30.30
2023-11-04T12:43:15.709Z,30.00
2023-11-04T12:45:49.211Z,30.00
2023-11-04T12:48:21.066Z,29.90
2023-11-04T12:50:51.582Z,29.90
2023-11-04T12:53:21.539Z,30.00
2023-11-04T12:55:53.268Z,29.80
2023-11-04T12:58:23.214Z,29.70
2023-11-04T13:00:53.023Z,29.60
2023-11-04T13:03:23.341Z,29.70
2023-11-04T13:05:53.432Z,29.70
2023-11-04T13:08:23.735Z,29.90
2023-11-04T13:10:55.229Z,30.30
2023-11-04T13:13:25.113Z,30.60
2023-11-04T13:15:55.162Z,30.70
2023-11-04T13:18:25.473Z,30.80
2023-11-04T13:20:55.861Z,31.00
2023-11-04T13:23:25.964Z,30.90
2023-11-04T13:25:56.445Z,31.10
2023-11-04T13:28:26.425Z,31.10
2023-11-04T13:30:56.234Z,31.20
2023-11-04T13:33:26.220Z,31.00
2023-11-04T13:35:56.003Z,31.00
2023-11-04T13:38:26.272Z,30.90
2023-11-04T13:40:56.020Z,30.70
2023-11-04T13:43:26.310Z,30.50
2023-11-04T13:45:56.055Z,30.20
2023-11-04T13:48:25.937Z,30.00
2023-11-04T13:50:55.673Z,30.10
2023-11-04T13:53:25.946Z,30.10
2023-11-04T13:55:56.873Z,30.10
2023-11-04T13:58:26.922Z,30.10
2023-11-04T14:00:58.246Z,30.20
2023-11-04T14:03:29.017Z,30.00
2023-11-04T14:05:59.207Z,30.00
2023-11-04T14:08:30.283Z,29.90
2023-11-04T14:11:00.444Z,29.90
2023-11-04T14:13:30.989Z,29.80
2023-11-04T14:16:00.742Z,29.80
2023-11-04T14:18:31.054Z,29.80
2023-11-04T14:21:01.387Z,29.70
2023-11-04T14:23:31.537Z,29.60
2023-11-04T14:26:02.665Z,29.70
2023-11-04T14:28:33.303Z,29.70
2023-11-04T14:31:03.208Z,29.60
2023-11-04T14:33:35.166Z,29.40
2023-11-04T14:36:06.374Z,29.50
2023-11-04T14:38:40.973Z,29.50
2023-11-04T14:41:11.508Z,29.30
2023-11-04T14:43:43.955Z,29.20
2023-11-04T14:46:17.974Z,29.10
2023-11-04T14:48:48.204Z,29.20
2023-11-04T14:51:18.374Z,28.90
2023-11-04T14:53:49.754Z,28.60
2023-11-04T14:56:19.711Z,29.00
2023-11-04T14:58:49.906Z,29.20
2023-11-04T15:01:20.280Z,29.20
2023-11-04T15:03:50.535Z,29.30
2023-11-04T15:06:20.933Z,29.40
2023-11-04T15:08:52.526Z,29.50
2023-11-04T15:11:23.866Z,29.40
2023-11-04T15:13:54.310Z,29.50
2023-11-04T15:16:24.525Z,29.40
2023-11-04T15:18:55.741Z,29.40
2023-11-04T15:21:30.516Z,29.30
2023-11-04T15:24:01.199Z,29.20
2023-11-04T15:26:31.445Z,29.10
2023-11-04T15:29:01.769Z,29.00
2023-11-04T15:31:32.354Z,28.90
2023-11-04T15:34:06.435Z,29.00
2023-11-04T15:36:37.943Z,28.90
2023-11-04T15:39:08.931Z,28.90
2023-11-04T15:41:41.465Z,28.90
2023-11-04T15:44:11.621Z,28.50
2023-11-04T15:46:41.778Z,28.20
2023-11-04T15:49:12.224Z,28.20
2023-11-04T15:51:42.522Z,28.20
2023-11-04T15:54:13.234Z,28.50
2023-11-04T15:56:44.434Z,28.60
2023-11-04T15:59:15.362Z,28.70
2023-11-04T16:01:47.429Z,28.80
2023-11-04T16:04:17.912Z,28.80
2023-11-04T16:06:49.292Z,28.80
2023-11-04T16:09:19.981Z,28.70
2023-11-04T16:11:52.107Z,28.70
2023-11-04T16:14:22.724Z,28.70
2023-11-04T16:16:56.631Z,28.60
2023-11-04T16:19:28.664Z,28.60
2023-11-04T16:21:59.475Z,28.20
2023-11-04T16:24:29.291Z,28.30
2023-11-04T16:26:59.281Z,28.50
2023-11-04T16:29:29.126Z,28.50
2023-11-04T16:32:00.621Z,28.50
2023-11-04T16:34:30.840Z,28.40
2023-11-04T16:37:01.393Z,28.20
2023-11-04T16:39:31.182Z,28.10
2023-11-04T16:42:01.159Z,28.30
2023-11-04T16:44:31.274Z,28.10
2023-11-04T16:47:02.353Z,28.00
2023-11-04T16:49:32.488Z,28.00
2023-11-04T16:52:02.803Z,28.10
2023-11-04T16:54:33.482Z,28.20
2023-11-04T16:57:03.766Z,28.10
2023-11-04T16:59:34.557Z,28.20
2023-11-04T17:02:04.926Z,28.30
2023-11-04T17:04:36.243Z,28.20
2023-11-04T17:07:07.899Z,28.10
2023-11-04T17:09:38.211Z,28.00
2023-11-04T17:12:08.401Z,28.10
2023-11-04T17:14:39.231Z,28.10
2023-11-04T17:17:09.585Z,28.00
2023-11-04T17:19:41.339Z,27.80
2023-11-04T17:22:12.196Z,27.60
2023-11-04T17:24:42.497Z,27.80
2023-11-04T17:27:13.015Z,27.60
2023-11-04T17:29:43.679Z,27.20
2023-11-04T17:32:13.740Z,27.10
2023-11-04T17:34:44.772Z,27.20
2023-11-04T17:37:15.361Z,27.20
2023-11-04T17:39:45.505Z,27.20
2023-11-04T17:42:16.788Z,27.20
2023-11-04T17:44:47.848Z,27.30
2023-11-04T17:47:18.928Z,27.40
2023-11-04T17:49:50.964Z,27.60
2023-11-04T17:52:21.628Z,27.80
2023-11-04T17:54:52.337Z,27.90
2023-11-04T17:57:23.097Z,27.90
2023-11-04T17:59:54.017Z,27.70
2023-11-04T18:02:24.368Z,27.30
2023-11-04T18:04:55.750Z,27.20
2023-11-04T18:07:28.703Z,27.20
2023-11-04T18:10:00.922Z,27.40
2023-11-04T18:12:32.081Z,27.30
2023-11-04T18:15:03.441Z,27.20
2023-11-04T18:17:33.700Z,27.30
2023-11-04T18:20:04.231Z,27.60
2023-11-04T18:22:35.478Z,27.70
2023-11-04T18:25:07.161Z,27.80
2023-11-04T18:27:50.950Z,27.70
2023-11-04T18:30:28.249Z,27.80
2023-11-04T18:32:58.924Z,27.80
2023-11-04T18:35:29.578Z,27.70
2023-11-04T18:38:00.122Z,27.70
2023-11-04T18:40:30.508Z,27.50
2023-11-04T18:43:04.022Z,27.20
2023-11-04T18:45:34.372Z,27.00
2023-11-04T18:48:05.389Z,27.00
2023-11-04T18:50:36.063Z,27.00
2023-11-04T18:53:06.232Z,27.00
2023-11-04T18:55:36.426Z,27.00
2023-11-04T18:58:07.106Z,26.90
2023-11-04T19:00:37.608Z,26.90
2023-11-04T19:03:07.804Z,26.80
2023-11-04T19:05:39.764Z,26.90
2023-11-04T19:08:10.092Z,27.00
2023-11-04T19:10:40.910Z,27.20
2023-11-04T19:13:12.598Z,27.30
2023-11-04T19:15:44.501Z,27.40
2023-11-04T19:18:14.876Z,27.20
2023-11-04T19:20:45.167Z,27.10
2023-11-04T19:23:15.982Z,27.00
2023-11-04T19:25:45.918Z,27.10
2023-11-04T19:28:21.751Z,27.20
2023-11-04T19:30:53.197Z,27.10
2023-11-04T19:33:23.906Z,27.00
2023-11-04T19:35:54.482Z,27.20
2023-11-04T19:38:24.221Z,27.20
2023-11-04T19:40:54.572Z,27.20
2023-11-04T19:43:25.109Z,26.90
2023-11-04T19:45:55.865Z,26.80
2023-11-04T19:48:26.356Z,26.80
2023-11-04T19:50:56.148Z,26.80
2023-11-04T19:53:26.647Z,26.80
2023-11-04T19:55:59.902Z,26.80
2023-11-04T19:58:30.427Z,26.80
2023-11-04T20:01:00.612Z,26.80
2023-11-04T20:03:31.149Z,26.90
2023-11-04T20:06:01.252Z,26.80
2023-11-04T20:08:31.713Z,26.90
2023-11-04T20:11:02.234Z,27.00
2023-11-04T20:13:32.736Z,27.10
2023-11-04T20:16:02.862Z,27.20
2023-11-04T20:18:33.358Z,27.20
2023-11-04T20:21:03.483Z,27.20
2023-11-04T20:23:33.982Z,26.80
2023-11-04T20:26:05.041Z,26.70
2023-11-04T20:28:35.563Z,26.60
2023-11-04T20:31:05.842Z,26.60
2023-11-04T20:33:37.410Z,26.60
2023-11-04T20:36:08.160Z,26.70
2023-11-04T20:38:39.098Z,26.50
2023-11-04T20:41:09.091Z,26.50
2023-11-04T20:43:39.696Z,26.40
2023-11-04T20:46:10.246Z,26.50
2023-11-04T20:48:40.961Z,26.60
2023-11-04T20:51:11.140Z,26.70
2023-11-04T20:53:41.173Z,26.80
2023-11-04T20:56:11.278Z,26.80
2023-11-04T20:58:41.395Z,26.90
2023-11-04T21:01:11.966Z,26.90
2023-11-04T21:03:42.063Z,26.90
2023-11-04T21:06:14.116Z,26.90
2023-11-04T21:08:45.614Z,26.80
2023-11-04T21:11:16.992Z,26.70
2023-11-04T21:13:48.799Z,26.60
2023-11-04T21:16:19.144Z,26.70
2023-11-04T21:18:49.302Z,26.70
2023-11-04T21:21:24.167Z,26.80
2023-11-04T21:23:55.772Z,26.80
2023-11-04T21:26:27.258Z,26.80
2023-11-04T21:28:57.278Z,26.80
2023-11-04T21:31:26.930Z,26.80
2023-11-04T21:33:56.824Z,26.70
2023-11-04T21:36:26.498Z,26.70
2023-11-04T21:38:56.687Z,26.70
2023-11-04T21:41:26.700Z,26.80
2023-11-04T21:43:56.923Z,26.70
2023-11-04T21:46:26.990Z,26.60
2023-11-04T21:48:59.243Z,26.50
2023-11-04T21:51:30.849Z,26.40
2023-11-04T21:54:01.175Z,26.30
2023-11-04T21:56:30.925Z,26.30
2023-11-04T21:59:01.235Z,26.30
2023-11-04T22:01:31.323Z,26.40
2023-11-04T22:04:01.506Z,26.40
2023-11-04T22:06:31.558Z,26.40
2023-11-04T22:09:01.814Z,26.40
2023-11-04T22:11:33.020Z,26.30
2023-11-04T22:14:07.310Z,26.10
2023-11-04T22:16:37.548Z,26.10
2023-11-04T22:19:07.396Z,26.20
2023-11-04T22:21:38.035Z,26.10
2023-11-04T22:24:08.735Z,26.30
2023-11-04T22:26:42.402Z,26.30
2023-11-04T22:29:12.275Z,26.30
2023-11-04T22:31:42.235Z,26.40
2023-11-04T22:34:12.737Z,26.30
2023-11-04T22:36:42.949Z,26.20
2023-11-04T22:39:14.678Z,26.10
2023-11-04T22:41:45.641Z,26.00
2023-11-04T22:44:15.690Z,26.00
2023-11-04T22:46:45.525Z,26.00
2023-11-04T22:49:15.242Z,26.00
2023-11-04T22:51:46.098Z,26.10
2023-11-04T22:54:16.615Z,26.10
2023-11-04T22:56:46.624Z,26.00
2023-11-04T22:59:16.617Z,25.90
2023-11-04T23:01:48.409Z,26.00
2023-11-04T23:04:20.331Z,26.10
2023-11-04T23:06:52.745Z,26.10
2023-11-04T23:09:23.158Z,26.00
2023-11-04T23:11:53.756Z,25.90
2023-11-04T23:14:24.238Z,25.90
2023-11-04T23:16:54.460Z,25.90
2023-11-04T23:19:24.917Z,26.00
2023-11-04T23:21:55.035Z,26.00
2023-11-04T23:24:25.801Z,26.00
2023-11-04T23:26:56.470Z,25.80
2023-11-04T23:29:26.619Z,25.80
2023-11-04T23:31:57.094Z,25.90
2023-11-04T23:34:28.080Z,26.10
2023-11-04T23:36:58.803Z,26.20
2023-11-04T23:39:29.000Z,26.10
2023-11-04T23:41:58.980Z,26.10
2023-11-04T23:44:29.406Z,26.10
2023-11-04T23:46:59.394Z,26.20
2023-11-04T23:49:29.696Z,26.20
2023-11-04T23:52:01.750Z,26.40
2023-11-04T23:54:31.583Z,26.40
2023-11-04T23:57:01.655Z,26.50
2023-11-04T23:59:31.610Z,26.40
